createdAt,value
2022-10-27T00:01:17.759Z,26.45
2022-10-27T00:03:45.380Z,23.52
2022-10-27T00:06:12.698Z,22.55
2022-10-27T00:08:40.031Z,22.17
2022-10-27T00:11:07.673Z,22.40
2022-10-27T00:13:35.130Z,26.40
2022-10-27T00:16:04.604Z,26.00
2022-10-27T00:18:32.345Z,24.25
2022-10-27T00:21:02.995Z,22.35
2022-10-27T00:23:31.443Z,23.10
2022-10-27T00:25:59.150Z,22.17
2022-10-27T00:28:26.843Z,22.37
2022-10-27T00:30:58.639Z,21.58
2022-10-27T00:33:26.274Z,23.08
2022-10-27T00:35:53.592Z,21.33
2022-10-27T00:38:22.506Z,23.17
2022-10-27T00:40:50.102Z,22.55
2022-10-27T00:43:30.822Z,22.52
2022-10-27T00:46:02.528Z,24.42
2022-10-27T00:48:30.142Z,23.77
2022-10-27T00:50:58.873Z,21.67
2022-10-27T00:53:26.201Z,24.00
2022-10-27T00:55:53.498Z,22.70
2022-10-27T00:58:21.341Z,21.42
2022-10-27T01:00:48.721Z,19.62
2022-10-27T01:03:17.439Z,21.55
2022-10-27T01:05:45.042Z,22.98
2022-10-27T01:08:12.365Z,22.77
2022-10-27T01:10:39.682Z,21.83
2022-10-27T01:13:07.318Z,25.23
2022-10-27T01:15:39.779Z,27.30
2022-10-27T01:18:25.046Z,29.40
2022-10-27T01:21:19.756Z,28.30
2022-10-27T01:24:24.363Z,30.70
2022-10-27T01:27:00.030Z,35.10
2022-10-27T01:29:45.888Z,33.50
2022-10-27T01:32:25.105Z,23.90
2022-10-27T01:34:57.650Z,35.58
2022-10-27T01:37:30.463Z,35.13
2022-10-27T01:40:16.274Z,37.40
2022-10-27T01:42:50.168Z,36.50
2022-10-27T01:45:29.531Z,35.63
2022-10-27T01:47:56.911Z,33.22
2022-10-27T01:50:45.055Z,37.78
2022-10-27T01:53:20.810Z,35.40
2022-10-27T01:56:03.874Z,32.80
2022-10-27T01:58:43.271Z,32.90
2022-10-27T02:01:32.779Z,33.67
2022-10-27T02:04:00.247Z,33.40
2022-10-27T02:06:31.959Z,36.25
2022-10-27T02:09:18.536Z,32.67
2022-10-27T02:14:13.477Z,32.85
2022-10-27T02:16:43.524Z,32.25
2022-10-27T02:19:25.782Z,32.45
2022-10-27T02:21:54.271Z,32.10
2022-10-27T02:24:21.687Z,32.35
2022-10-27T02:26:57.256Z,33.05
2022-10-27T02:29:35.997Z,33.58
2022-10-27T02:32:05.588Z,33.22
2022-10-27T02:34:33.273Z,30.83
2022-10-27T02:37:00.663Z,36.20
2022-10-27T02:39:28.007Z,29.35
2022-10-27T02:41:55.593Z,33.55
2022-10-27T02:44:22.906Z,29.25
2022-10-27T02:46:52.846Z,31.35
2022-10-27T02:49:20.784Z,38.95
2022-10-27T02:51:48.118Z,44.00
2022-10-27T02:54:15.416Z,45.30
2022-10-27T02:56:43.005Z,53.22
2022-10-27T02:59:10.328Z,51.72
2022-10-27T03:01:37.877Z,52.22
2022-10-27T03:04:05.708Z,49.88
2022-10-27T03:06:33.004Z,53.28
2022-10-27T03:09:00.330Z,51.85
2022-10-27T03:11:27.921Z,59.75
2022-10-27T03:13:55.278Z,45.90
2022-10-27T03:16:22.605Z,48.97
2022-10-27T03:18:50.201Z,59.40
2022-10-27T03:21:17.527Z,47.10
2022-10-27T03:23:44.884Z,46.05
2022-10-27T03:26:12.508Z,49.88
2022-10-27T03:28:39.884Z,58.22
2022-10-27T03:31:07.209Z,51.42
2022-10-27T03:33:34.822Z,49.67
2022-10-27T03:36:02.235Z,54.95
2022-10-27T03:38:29.570Z,51.33
2022-10-27T03:40:57.152Z,54.15
2022-10-27T03:43:24.606Z,57.60
2022-10-27T03:45:55.074Z,51.08
2022-10-27T03:48:24.837Z,50.08
2022-10-27T03:50:52.157Z,60.05
2022-10-27T03:53:19.828Z,54.70
2022-10-27T03:55:47.924Z,55.17
2022-10-27T03:58:16.767Z,59.03
2022-10-27T04:00:44.839Z,59.33
2022-10-27T04:03:12.508Z,65.05
2022-10-27T04:05:39.842Z,61.15
2022-10-27T04:08:07.150Z,56.25
2022-10-27T04:10:34.740Z,59.97
2022-10-27T04:13:02.086Z,56.90
2022-10-27T04:15:29.493Z,58.15
2022-10-27T04:17:57.909Z,48.75
2022-10-27T04:20:25.611Z,50.90
2022-10-27T04:22:57.849Z,49.83
2022-10-27T04:25:25.678Z,49.33
2022-10-27T04:28:03.593Z,55.75
2022-10-27T04:30:31.442Z,51.10
2022-10-27T04:32:58.849Z,59.25
2022-10-27T04:35:26.234Z,50.88
2022-10-27T04:37:57.144Z,49.15
2022-10-27T04:40:24.623Z,53.40
2022-10-27T04:42:51.962Z,59.55
2022-10-27T04:45:19.695Z,53.92
2022-10-27T04:47:47.116Z,59.83
2022-10-27T04:50:14.657Z,49.63
2022-10-27T04:52:44.392Z,55.12
2022-10-27T04:55:12.027Z,51.10
2022-10-27T04:57:39.347Z,58.80
2022-10-27T05:00:07.613Z,55.92
2022-10-27T05:02:37.915Z,51.75
2022-10-27T05:05:06.480Z,55.47
2022-10-27T05:07:34.047Z,51.05
2022-10-27T05:10:01.408Z,48.95
2022-10-27T05:12:28.724Z,47.62
2022-10-27T05:14:56.327Z,51.78
2022-10-27T05:17:23.684Z,53.85
2022-10-27T05:19:51.014Z,53.08
2022-10-27T05:22:18.638Z,53.45
2022-10-27T05:24:45.946Z,46.17
2022-10-27T05:27:13.301Z,48.00
2022-10-27T05:29:40.922Z,43.00
2022-10-27T05:32:08.309Z,46.65
2022-10-27T05:34:35.642Z,46.55
2022-10-27T05:37:03.396Z,43.30
2022-10-27T05:39:30.738Z,38.42
2022-10-27T05:41:58.066Z,43.22
2022-10-27T05:44:25.652Z,39.58
2022-10-27T05:46:53.013Z,38.42
2022-10-27T05:49:20.333Z,37.58
2022-10-27T05:51:51.194Z,36.42
2022-10-27T05:54:18.811Z,38.05
2022-10-27T05:56:46.136Z,39.75
2022-10-27T05:59:13.733Z,37.50
2022-10-27T06:01:41.194Z,34.47
2022-10-27T06:04:08.854Z,41.37
2022-10-27T06:06:36.181Z,38.55
2022-10-27T06:09:03.582Z,36.25
2022-10-27T06:11:31.191Z,37.85
2022-10-27T06:13:58.493Z,37.13
2022-10-27T06:16:25.959Z,39.88
2022-10-27T06:18:54.023Z,41.05
2022-10-27T06:21:21.494Z,37.63
2022-10-27T06:23:49.268Z,38.38
2022-10-27T06:26:16.948Z,35.47
2022-10-27T06:28:44.280Z,35.70
2022-10-27T06:31:11.616Z,36.17
2022-10-27T06:33:39.193Z,37.08
2022-10-27T06:36:06.601Z,36.08
2022-10-27T06:38:33.933Z,38.08
2022-10-27T06:41:01.536Z,37.50
2022-10-27T06:43:28.905Z,39.22
2022-10-27T06:46:00.925Z,33.97
2022-10-27T06:48:29.515Z,37.17
2022-10-27T06:50:57.005Z,35.35
2022-10-27T06:53:24.450Z,40.30
2022-10-27T06:55:52.083Z,34.08
2022-10-27T06:58:19.423Z,39.88
2022-10-27T07:00:46.727Z,35.17
2022-10-27T07:03:14.377Z,31.95
2022-10-27T07:05:41.709Z,33.60
2022-10-27T07:08:09.109Z,34.58
2022-10-27T07:10:36.751Z,29.50
2022-10-27T07:13:04.149Z,29.35
2022-10-27T07:15:33.320Z,28.35
2022-10-27T07:18:03.175Z,31.58
2022-10-27T07:20:31.156Z,29.45
2022-10-27T07:22:58.550Z,29.12
2022-10-27T07:25:27.393Z,27.13
2022-10-27T07:27:55.890Z,31.27
2022-10-27T07:30:25.130Z,26.40
2022-10-27T07:32:52.768Z,28.15
2022-10-27T07:35:20.131Z,29.02
2022-10-27T07:37:47.588Z,25.65
2022-10-27T07:40:16.238Z,27.08
2022-10-27T07:42:50.588Z,31.33
2022-10-27T07:45:20.348Z,26.33
2022-10-27T07:47:49.601Z,34.25
2022-10-27T07:50:17.998Z,36.00
2022-10-27T07:52:52.553Z,30.40
2022-10-27T07:55:21.280Z,31.92
2022-10-27T07:58:00.597Z,33.72
2022-10-27T08:00:28.058Z,34.08
2022-10-27T08:02:55.632Z,34.40
2022-10-27T08:05:22.999Z,32.17
2022-10-27T08:07:50.555Z,30.48
2022-10-27T08:10:18.310Z,30.95
2022-10-27T08:12:45.645Z,34.90
2022-10-27T08:15:13.046Z,34.20
2022-10-27T08:17:40.673Z,33.75
2022-10-27T08:20:08.730Z,33.63
2022-10-27T08:22:36.146Z,35.72
2022-10-27T08:25:06.130Z,36.08
2022-10-27T08:27:36.452Z,42.45
2022-10-27T08:30:04.294Z,39.50
2022-10-27T08:32:31.835Z,43.35
2022-10-27T08:34:59.245Z,44.97
2022-10-27T08:37:26.854Z,42.22
2022-10-27T08:39:54.173Z,40.42
2022-10-27T08:42:44.214Z,38.40
2022-10-27T08:45:31.195Z,40.17
2022-10-27T08:47:58.820Z,40.85
2022-10-27T08:50:28.150Z,39.58
2022-10-27T08:53:05.643Z,38.88
2022-10-27T08:55:36.069Z,36.88
2022-10-27T08:58:25.380Z,41.03
2022-10-27T09:00:57.356Z,34.97
2022-10-27T09:03:36.762Z,55.00
2022-10-27T09:06:12.664Z,38.55
2022-10-27T09:08:48.612Z,49.30
2022-10-27T09:11:37.490Z,44.15
2022-10-27T09:14:26.094Z,43.60
2022-10-27T09:16:59.723Z,40.17
2022-10-27T09:19:34.035Z,35.85
2022-10-27T09:22:02.932Z,39.88
2022-10-27T09:24:30.482Z,52.33
2022-10-27T09:26:59.254Z,37.35
2022-10-27T09:29:27.215Z,45.70
2022-10-27T09:31:59.121Z,40.35
2022-10-27T09:34:28.710Z,39.08
2022-10-27T09:36:56.089Z,42.80
2022-10-27T09:39:23.519Z,36.70
2022-10-27T09:41:51.203Z,49.20
2022-10-27T09:44:20.685Z,35.28
2022-10-27T09:46:54.691Z,37.17
2022-10-27T09:49:27.806Z,38.13
2022-10-27T09:51:58.463Z,36.45
2022-10-27T09:54:36.742Z,40.22
2022-10-27T09:57:11.449Z,37.58
2022-10-27T09:59:39.096Z,37.28
2022-10-27T10:02:19.809Z,36.92
2022-10-27T10:04:47.841Z,38.53
2022-10-27T10:07:37.664Z,40.05
2022-10-27T10:10:06.828Z,36.40
2022-10-27T10:12:34.283Z,39.67
2022-10-27T10:15:10.383Z,41.22
2022-10-27T10:17:42.755Z,38.92
2022-10-27T10:20:35.587Z,39.22
2022-10-27T10:23:04.428Z,42.83
2022-10-27T10:25:35.649Z,39.60
2022-10-27T10:28:06.179Z,38.05
2022-10-27T10:30:37.939Z,37.03
2022-10-27T10:33:06.401Z,36.75
2022-10-27T10:35:43.642Z,38.95
2022-10-27T10:38:23.878Z,41.03
2022-10-27T10:41:03.498Z,37.40
2022-10-27T10:43:31.301Z,38.92
2022-10-27T10:45:59.404Z,41.60
2022-10-27T10:48:31.109Z,38.25
2022-10-27T10:50:58.839Z,42.80
2022-10-27T10:53:51.822Z,36.72
2022-10-27T10:56:50.250Z,38.30
2022-10-27T10:59:18.332Z,38.13
2022-10-27T11:01:54.921Z,39.22
2022-10-27T11:07:19.712Z,36.60
2022-10-27T11:10:09.901Z,37.80
2022-10-27T11:12:40.301Z,39.83
2022-10-27T11:15:16.122Z,43.87
2022-10-27T11:17:44.062Z,38.83
2022-10-27T11:20:18.564Z,42.97
2022-10-27T11:25:23.729Z,37.60
2022-10-27T11:28:05.265Z,40.33
2022-10-27T11:30:32.660Z,35.60
2022-10-27T11:33:15.642Z,38.85
2022-10-27T11:36:10.443Z,34.67
2022-10-27T11:38:59.748Z,34.13
2022-10-27T11:41:33.046Z,35.25
2022-10-27T11:44:08.766Z,32.65
2022-10-27T11:46:44.811Z,32.47
2022-10-27T11:49:38.248Z,35.88
2022-10-27T11:52:16.384Z,30.90
2022-10-27T11:54:43.998Z,34.10
2022-10-27T11:57:45.883Z,36.65
2022-10-27T12:00:26.603Z,38.05
2022-10-27T12:03:15.877Z,31.17
2022-10-27T12:05:52.180Z,30.20
2022-10-27T12:08:40.895Z,34.28
2022-10-27T12:11:40.530Z,34.17
2022-10-27T12:14:40.383Z,31.10
2022-10-27T12:17:20.173Z,35.30
2022-10-27T12:19:48.162Z,29.55
2022-10-27T12:22:28.291Z,31.87
2022-10-27T12:25:09.958Z,30.75
2022-10-27T12:27:41.731Z,32.35
2022-10-27T12:30:12.805Z,29.08
2022-10-27T12:32:47.726Z,28.65
2022-10-27T12:35:24.370Z,33.03
2022-10-27T12:40:48.334Z,30.83
2022-10-27T12:43:26.602Z,31.58
2022-10-27T12:46:06.250Z,32.85
2022-10-27T12:48:48.257Z,34.28
2022-10-27T12:51:33.289Z,35.17
2022-10-27T12:54:26.891Z,43.35
2022-10-27T12:57:02.507Z,38.08
2022-10-27T12:59:54.247Z,41.13
2022-10-27T13:02:25.380Z,40.47
2022-10-27T13:05:18.646Z,45.65
2022-10-27T13:08:08.820Z,39.70
2022-10-27T13:10:54.898Z,40.05
2022-10-27T13:13:44.419Z,49.13
2022-10-27T13:16:30.675Z,49.65
2022-10-27T13:19:32.273Z,44.22
2022-10-27T13:22:24.208Z,49.80
2022-10-27T13:25:16.223Z,45.63
2022-10-27T13:27:49.212Z,43.05
2022-10-27T13:30:20.760Z,46.50
2022-10-27T13:32:47.940Z,47.17
2022-10-27T13:35:15.141Z,43.33
2022-10-27T13:38:08.812Z,43.42
2022-10-27T13:40:36.999Z,50.15
2022-10-27T13:43:22.790Z,46.20
2022-10-27T13:45:55.905Z,44.38
2022-10-27T13:48:23.726Z,53.45
2022-10-27T13:50:57.870Z,52.17
2022-10-27T13:53:28.211Z,46.65
2022-10-27T13:55:57.011Z,51.63
2022-10-27T13:58:50.105Z,53.30
2022-10-27T14:01:35.510Z,44.42
2022-10-27T14:04:27.838Z,50.90
2022-10-27T14:07:00.196Z,49.92
2022-10-27T14:09:36.863Z,51.95
2022-10-27T14:14:42.330Z,48.05
2022-10-27T14:17:17.153Z,48.72
2022-10-27T14:19:51.201Z,50.22
2022-10-27T14:22:29.858Z,48.97
2022-10-27T14:25:02.751Z,41.83
2022-10-27T14:27:30.097Z,57.58
2022-10-27T14:30:05.665Z,43.22
2022-10-27T14:32:33.105Z,43.45
2022-10-27T14:35:15.307Z,45.63
2022-10-27T14:37:42.889Z,51.05
2022-10-27T14:40:25.592Z,45.47
2022-10-27T14:42:53.165Z,44.63
2022-10-27T14:45:22.253Z,43.65
2022-10-27T14:47:53.816Z,42.97
2022-10-27T14:50:25.095Z,43.28
2022-10-27T14:52:55.436Z,38.33
2022-10-27T14:55:33.881Z,41.08
2022-10-27T14:58:01.233Z,39.97
2022-10-27T15:00:32.625Z,41.33
2022-10-27T15:03:02.163Z,43.97
2022-10-27T15:05:31.777Z,39.38
2022-10-27T15:08:00.356Z,38.95
2022-10-27T15:10:34.451Z,46.15
2022-10-27T15:13:02.098Z,40.78
2022-10-27T15:15:32.439Z,45.28
2022-10-27T15:18:04.404Z,45.15
2022-10-27T15:20:32.070Z,43.95
2022-10-27T15:22:59.453Z,44.92
2022-10-27T15:25:27.979Z,43.78
2022-10-27T15:27:58.334Z,47.58
2022-10-27T15:30:25.661Z,41.90
2022-10-27T15:32:53.419Z,48.17
2022-10-27T15:35:35.484Z,46.55
2022-10-27T15:38:03.417Z,43.60
2022-10-27T15:40:45.200Z,49.17
2022-10-27T15:43:30.530Z,41.28
2022-10-27T15:46:31.708Z,42.47
2022-10-27T15:49:02.034Z,44.53
2022-10-27T15:51:53.123Z,49.03
2022-10-27T15:54:47.599Z,41.58
2022-10-27T15:57:42.336Z,45.10
2022-10-27T16:00:12.561Z,49.70
2022-10-27T16:02:46.086Z,50.63
2022-10-27T16:05:31.730Z,49.95
2022-10-27T16:07:59.995Z,47.88
2022-10-27T16:10:27.373Z,43.55
2022-10-27T16:12:55.164Z,43.42
2022-10-27T16:15:24.003Z,51.20
2022-10-27T16:17:55.718Z,43.22
2022-10-27T16:20:34.055Z,41.33
2022-10-27T16:23:01.401Z,48.08
2022-10-27T16:25:32.741Z,48.08
2022-10-27T16:28:00.191Z,46.80
2022-10-27T16:30:27.545Z,50.15
2022-10-27T16:33:00.014Z,49.08
2022-10-27T16:35:27.330Z,40.80
2022-10-27T16:37:56.112Z,47.00
2022-10-27T16:40:24.214Z,43.40
2022-10-27T16:42:52.621Z,43.17
2022-10-27T16:45:20.577Z,45.55
2022-10-27T16:47:51.564Z,50.05
2022-10-27T16:50:19.409Z,44.90
2022-10-27T16:52:53.935Z,39.75
2022-10-27T16:55:21.765Z,41.10
2022-10-27T16:57:49.909Z,44.13
2022-10-27T17:00:17.642Z,42.42
2022-10-27T17:02:45.007Z,41.85
2022-10-27T17:05:12.613Z,40.30
2022-10-27T17:07:41.995Z,40.33
2022-10-27T17:10:10.082Z,44.22
2022-10-27T17:12:37.729Z,38.65
2022-10-27T17:15:05.247Z,43.72
2022-10-27T17:17:32.845Z,41.03
2022-10-27T17:20:00.480Z,47.80
2022-10-27T17:22:27.914Z,35.90
2022-10-27T17:24:55.279Z,41.00
2022-10-27T17:27:22.867Z,38.45
2022-10-27T17:29:50.267Z,43.13
2022-10-27T17:32:17.593Z,45.60
2022-10-27T17:34:45.209Z,39.60
2022-10-27T17:37:15.294Z,44.88
2022-10-27T17:39:42.634Z,40.65
2022-10-27T17:42:10.294Z,43.87
2022-10-27T17:44:37.646Z,38.28
2022-10-27T17:47:05.026Z,40.53
2022-10-27T17:49:32.604Z,40.47
2022-10-27T17:51:59.939Z,38.53
2022-10-27T17:54:27.255Z,40.40
2022-10-27T17:56:54.827Z,40.10
2022-10-27T17:59:22.137Z,36.97
2022-10-27T18:01:50.162Z,44.03
2022-10-27T18:04:17.864Z,40.10
2022-10-27T18:06:45.210Z,42.62
2022-10-27T18:09:13.579Z,37.83
2022-10-27T18:11:41.938Z,37.30
2022-10-27T18:14:14.327Z,44.90
2022-10-27T18:16:42.118Z,38.70
2022-10-27T18:19:10.668Z,37.50
2022-10-27T18:21:39.245Z,35.97
2022-10-27T18:24:07.568Z,36.35
2022-10-27T18:26:36.255Z,40.33
2022-10-27T18:29:04.522Z,38.70
2022-10-27T18:31:36.095Z,42.15
2022-10-27T18:34:07.842Z,37.70
2022-10-27T18:36:35.604Z,37.97
2022-10-27T18:39:03.127Z,39.65
2022-10-27T18:41:35.090Z,38.33
2022-10-27T18:44:02.888Z,41.97
2022-10-27T18:46:30.275Z,39.40
2022-10-27T18:49:01.846Z,35.38
2022-10-27T18:51:30.503Z,35.33
2022-10-27T18:54:00.449Z,41.60
2022-10-27T18:56:27.773Z,40.67
2022-10-27T18:58:56.409Z,38.00
2022-10-27T19:01:24.057Z,41.00
2022-10-27T19:03:55.229Z,36.10
2022-10-27T19:06:22.950Z,43.78
2022-10-27T19:08:50.279Z,45.40
2022-10-27T19:11:18.817Z,44.25
2022-10-27T19:13:46.450Z,47.10
2022-10-27T19:16:18.518Z,45.70
2022-10-27T19:18:46.566Z,44.78
2022-10-27T19:21:16.255Z,39.42
2022-10-27T19:23:47.116Z,39.80
2022-10-27T19:26:18.983Z,49.13
2022-10-27T19:28:46.898Z,43.65
2022-10-27T19:31:17.273Z,43.30
2022-10-27T19:33:45.396Z,35.53
2022-10-27T19:36:23.472Z,42.88
2022-10-27T19:38:51.389Z,39.13
2022-10-27T19:41:20.515Z,39.47
2022-10-27T19:43:48.939Z,41.22
2022-10-27T19:46:20.730Z,41.25
2022-10-27T19:48:51.793Z,42.35
2022-10-27T19:51:21.233Z,39.05
2022-10-27T19:53:48.935Z,45.70
2022-10-27T19:56:16.673Z,32.92
2022-10-27T19:58:44.615Z,43.00
2022-10-27T20:01:20.291Z,43.30
2022-10-27T20:03:48.100Z,41.72
2022-10-27T20:06:15.468Z,40.97
2022-10-27T20:08:43.146Z,40.67
2022-10-27T20:11:18.668Z,41.03
2022-10-27T20:13:48.662Z,44.90
2022-10-27T20:16:17.116Z,37.78
2022-10-27T20:18:44.668Z,41.58
2022-10-27T20:21:12.459Z,42.80
2022-10-27T20:23:40.069Z,39.13
2022-10-27T20:28:54.959Z,39.72
2022-10-27T20:31:22.269Z,38.22
2022-10-27T20:33:49.608Z,35.10
2022-10-27T20:36:17.233Z,39.75
2022-10-27T20:38:44.640Z,40.05
2022-10-27T20:41:16.396Z,42.03
2022-10-27T20:43:44.114Z,44.78
2022-10-27T20:46:11.543Z,37.53
2022-10-27T20:48:40.688Z,38.47
2022-10-27T20:51:12.496Z,35.53
2022-10-27T20:53:40.116Z,31.67
2022-10-27T20:56:10.085Z,33.00
2022-10-27T20:58:37.427Z,39.13
2022-10-27T21:01:40.586Z,36.72
2022-10-27T21:04:13.067Z,33.17
2022-10-27T21:06:44.383Z,37.40
2022-10-27T21:09:13.955Z,33.92
2022-10-27T21:11:41.506Z,35.35
2022-10-27T21:14:09.100Z,34.22
2022-10-27T21:16:36.772Z,34.50
2022-10-27T21:19:06.100Z,36.22
2022-10-27T21:21:33.498Z,34.15
2022-10-27T21:24:04.429Z,34.53
2022-10-27T21:26:31.800Z,32.30
2022-10-27T21:28:59.831Z,30.83
2022-10-27T21:31:29.177Z,33.53
2022-10-27T21:33:56.750Z,31.87
2022-10-27T21:36:24.108Z,35.58
2022-10-27T21:38:51.739Z,37.17
2022-10-27T21:41:20.887Z,30.90
2022-10-27T21:43:52.137Z,32.75
2022-10-27T21:46:21.398Z,33.38
2022-10-27T21:48:48.750Z,33.33
2022-10-27T21:51:16.112Z,34.80
2022-10-27T21:53:43.761Z,32.17
2022-10-27T21:56:11.647Z,32.85
2022-10-27T21:58:39.241Z,32.20
2022-10-27T22:01:11.653Z,35.17
2022-10-27T22:03:39.820Z,35.15
2022-10-27T22:06:08.167Z,34.22
2022-10-27T22:08:35.876Z,35.17
2022-10-27T22:11:08.087Z,42.38
2022-10-27T22:13:35.636Z,33.60
2022-10-27T22:16:07.757Z,38.70
2022-10-27T22:18:35.298Z,43.55
2022-10-27T22:21:03.111Z,39.85
2022-10-27T22:23:30.432Z,44.67
2022-10-27T22:26:08.058Z,46.33
2022-10-27T22:28:35.847Z,40.28
2022-10-27T22:31:07.215Z,39.90
2022-10-27T22:33:34.547Z,43.03
2022-10-27T22:36:06.797Z,42.13
2022-10-27T22:38:34.331Z,42.53
2022-10-27T22:41:06.993Z,47.62
2022-10-27T22:43:37.577Z,45.05
2022-10-27T22:46:05.361Z,40.95
2022-10-27T22:48:33.419Z,42.42
2022-10-27T22:51:01.651Z,42.28
2022-10-27T22:53:37.634Z,38.45
2022-10-27T22:56:23.532Z,41.95
2022-10-27T23:01:27.398Z,38.60
2022-10-27T23:03:56.909Z,38.47
2022-10-27T23:06:25.117Z,41.08
2022-10-27T23:08:57.999Z,39.00
2022-10-27T23:11:26.527Z,40.42
2022-10-27T23:13:53.850Z,40.10
2022-10-27T23:16:21.181Z,43.30
2022-10-27T23:18:48.848Z,35.83
2022-10-27T23:21:16.576Z,39.20
2022-10-27T23:23:43.945Z,44.88
2022-10-27T23:26:35.602Z,39.47
2022-10-27T23:29:04.598Z,38.50
2022-10-27T23:31:32.481Z,42.58
2022-10-27T23:34:01.120Z,44.67
2022-10-27T23:36:29.510Z,36.92
2022-10-27T23:38:57.354Z,36.22
2022-10-27T23:41:24.822Z,37.92
2022-10-27T23:43:53.360Z,35.75
2022-10-27T23:46:21.277Z,35.97
2022-10-27T23:48:48.697Z,38.95
2022-10-27T23:51:16.113Z,37.67
2022-10-27T23:53:43.732Z,39.08
2022-10-27T23:56:11.437Z,40.20
2022-10-27T23:58:40.309Z,35.63
